createdAt,value
2022-11-04T00:00:12.982Z,100226.64
2022-11-04T00:01:15.045Z,100222.45
2022-11-04T00:02:17.020Z,100226.91
2022-11-04T00:03:19.296Z,100223.23
2022-11-04T00:04:23.735Z,100225.80
2022-11-04T00:05:25.760Z,100226.64
2022-11-04T00:06:28.489Z,100220.59
2022-11-04T00:07:30.578Z,100219.74
2022-11-04T00:08:32.712Z,100216.97
2022-11-04T00:09:34.613Z,100219.55
2022-11-04T00:10:36.601Z,100226.38
2022-11-04T00:11:39.207Z,100222.95
2022-11-04T00:12:41.118Z,100219.55
2022-11-04T00:13:43.519Z,100233.52
2022-11-04T00:14:45.461Z,100224.68
2022-11-04T00:15:47.343Z,100222.25
2022-11-04T00:16:49.553Z,100229.28
2022-11-04T00:17:51.586Z,100223.09
2022-11-04T00:18:53.766Z,100221.37
2022-11-04T00:19:55.672Z,100221.37
2022-11-04T00:20:57.645Z,100223.09
2022-11-04T00:21:59.513Z,100217.81
2022-11-04T00:23:01.447Z,100226.51
2022-11-04T00:24:04.842Z,100216.91
2022-11-04T00:25:09.073Z,100221.23
2022-11-04T00:26:12.023Z,100220.45
2022-11-04T00:27:17.605Z,100216.23
2022-11-04T00:28:20.041Z,100214.33
2022-11-04T00:29:21.924Z,100208.98
2022-11-04T00:30:24.145Z,100222.11
2022-11-04T00:31:26.032Z,100214.41
2022-11-04T00:32:28.085Z,100213.45
2022-11-04T00:33:30.106Z,100216.09
2022-11-04T00:34:32.004Z,100212.41
2022-11-04T00:35:33.896Z,100210.81
2022-11-04T00:36:35.872Z,100212.74
2022-11-04T00:37:39.466Z,100209.39
2022-11-04T00:38:41.392Z,100209.33
2022-11-04T00:39:43.266Z,100208.38
2022-11-04T00:40:45.263Z,100203.41
2022-11-04T00:41:47.248Z,100204.19
2022-11-04T00:42:49.186Z,100202.26
2022-11-04T00:43:59.566Z,100196.14
2022-11-04T00:45:02.084Z,100199.55
2022-11-04T00:46:04.541Z,100202.20
2022-11-04T00:47:06.588Z,100204.83
2022-11-04T00:48:09.507Z,100202.53
2022-11-04T00:49:12.194Z,100199.83
2022-11-04T00:50:15.682Z,100201.11
2022-11-04T00:51:17.707Z,100206.37
2022-11-04T00:52:20.918Z,100209.73
2022-11-04T00:53:22.852Z,100207.16
2022-11-04T00:54:24.870Z,100199.05
2022-11-04T00:55:29.976Z,100204.52
2022-11-04T00:56:32.409Z,100206.64
2022-11-04T00:57:34.301Z,100201.23
2022-11-04T00:58:36.828Z,100199.25
2022-11-04T00:59:39.318Z,100200.97
2022-11-04T01:00:41.410Z,100197.25
2022-11-04T01:01:43.444Z,100202.53
2022-11-04T01:02:46.412Z,100195.36
2022-11-04T01:03:51.053Z,100199.96
2022-11-04T01:04:53.889Z,100203.61
2022-11-04T01:05:57.521Z,100204.39
2022-11-04T01:07:00.419Z,100198.20
2022-11-04T01:08:04.282Z,100197.25
2022-11-04T01:09:08.005Z,100202.66
2022-11-04T01:10:10.942Z,100202.59
2022-11-04T01:11:13.789Z,100197.39
2022-11-04T01:12:17.064Z,100202.66
2022-11-04T01:13:18.996Z,100192.05
2022-11-04T01:14:22.508Z,100192.79
2022-11-04T01:15:24.432Z,100191.70
2022-11-04T01:17:29.454Z,100194.41
2022-11-04T01:18:32.771Z,100190.16
2022-11-04T01:19:35.458Z,100194.55
2022-11-04T01:20:37.615Z,100196.92
2022-11-04T01:21:39.507Z,100190.86
2022-11-04T01:22:41.446Z,100183.80
2022-11-04T01:23:44.757Z,100191.64
2022-11-04T01:24:46.660Z,100193.44
2022-11-04T01:25:48.546Z,100189.84
2022-11-04T01:26:50.552Z,100191.70
2022-11-04T01:27:52.558Z,100195.19
2022-11-04T01:28:55.960Z,100183.66
2022-11-04T01:29:57.892Z,100189.00
2022-11-04T01:31:05.669Z,100184.57
2022-11-04T01:32:07.603Z,100187.08
2022-11-04T01:33:09.505Z,100187.08
2022-11-04T01:34:12.174Z,100187.08
2022-11-04T01:35:14.259Z,100182.81
2022-11-04T01:36:16.982Z,100181.94
2022-11-04T01:37:18.876Z,100184.44
2022-11-04T01:38:20.838Z,100191.58
2022-11-04T01:39:22.717Z,100188.87
2022-11-04T01:40:25.963Z,100182.61
2022-11-04T01:41:31.543Z,100177.33
2022-11-04T01:42:33.459Z,100181.73
2022-11-04T01:44:00.182Z,100183.59
2022-11-04T01:45:02.880Z,100182.75
2022-11-04T01:46:05.268Z,100189.84
2022-11-04T01:47:16.743Z,100183.80
2022-11-04T01:49:57.701Z,100185.95
2022-11-04T01:51:00.119Z,100183.80
2022-11-04T01:52:11.808Z,100183.02
2022-11-04T01:53:20.343Z,100191.64
2022-11-04T01:54:22.580Z,100178.92
2022-11-04T01:55:28.250Z,100183.29
2022-11-04T01:56:31.912Z,100184.06
2022-11-04T01:57:37.737Z,100181.50
2022-11-04T01:58:46.497Z,100189.41
2022-11-04T01:59:48.907Z,100189.34
2022-11-04T02:00:51.408Z,100189.34
2022-11-04T02:01:53.584Z,100192.68
2022-11-04T02:03:05.364Z,100192.41
2022-11-04T02:04:10.116Z,100191.47
2022-11-04T02:05:12.541Z,100186.46
2022-11-04T02:06:16.426Z,100188.12
2022-11-04T02:07:18.349Z,100189.98
2022-11-04T02:08:21.648Z,100189.84
2022-11-04T02:09:26.246Z,100188.12
2022-11-04T02:10:30.600Z,100189.23
2022-11-04T02:11:32.538Z,100183.95
2022-11-04T02:12:34.422Z,100189.84
2022-11-04T02:13:36.807Z,100194.82
2022-11-04T02:14:40.411Z,100187.66
2022-11-04T02:15:58.412Z,100191.98
2022-11-04T02:17:07.783Z,100185.52
2022-11-04T02:18:19.152Z,100188.02
2022-11-04T02:19:41.214Z,100185.31
2022-11-04T02:22:52.078Z,100182.23
2022-11-04T02:24:30.099Z,100182.23
2022-11-04T02:26:05.000Z,100175.83
2022-11-04T02:27:10.680Z,100172.92
2022-11-04T02:28:25.579Z,100171.89
2022-11-04T02:29:33.927Z,100171.05
2022-11-04T02:30:42.467Z,100175.55
2022-11-04T02:32:05.279Z,100175.55
2022-11-04T02:33:13.798Z,100178.12
2022-11-04T02:34:28.286Z,100163.98
2022-11-04T02:35:39.951Z,100166.86
2022-11-04T02:36:45.728Z,100166.86
2022-11-04T02:37:54.544Z,100176.47
2022-11-04T02:39:09.451Z,100174.39
2022-11-04T02:40:37.023Z,100169.19
2022-11-04T02:41:43.412Z,100171.61
2022-11-04T02:43:20.736Z,100167.50
2022-11-04T02:44:38.222Z,100170.84
2022-11-04T02:45:44.124Z,100168.20
2022-11-04T02:46:55.798Z,100160.07
2022-11-04T02:48:04.392Z,100160.07
2022-11-04T02:49:15.935Z,100161.77
2022-11-04T02:50:28.815Z,100162.78
2022-11-04T02:53:24.774Z,100164.05
2022-11-04T02:54:28.525Z,100161.94
2022-11-04T02:55:40.214Z,100166.27
2022-11-04T02:56:46.112Z,100156.48
2022-11-04T02:57:51.798Z,100156.48
2022-11-04T02:58:58.358Z,100154.02
2022-11-04T03:00:06.701Z,100154.02
2022-11-04T03:01:12.557Z,100165.34
2022-11-04T03:02:18.573Z,100165.34
2022-11-04T03:04:46.276Z,100157.78
2022-11-04T03:05:51.988Z,100153.07
2022-11-04T03:06:56.714Z,100152.23
2022-11-04T03:08:03.501Z,100155.64
2022-11-04T03:09:08.295Z,100151.20
2022-11-04T03:10:14.500Z,100152.37
2022-11-04T03:11:22.806Z,100152.37
2022-11-04T03:12:28.688Z,100159.37
2022-11-04T03:13:40.735Z,100158.35
2022-11-04T03:14:46.446Z,100156.94
2022-11-04T03:16:04.166Z,100158.42
2022-11-04T03:17:21.878Z,100161.06
2022-11-04T03:18:36.394Z,100162.64
2022-11-04T03:19:42.933Z,100159.93
2022-11-04T03:20:47.882Z,100156.66
2022-11-04T03:22:02.415Z,100156.66
2022-11-04T03:23:05.992Z,100166.05
2022-11-04T03:24:08.144Z,100170.20
2022-11-04T03:25:10.424Z,100170.77
2022-11-04T03:26:16.273Z,100172.49
2022-11-04T03:27:39.733Z,100165.34
2022-11-04T03:28:48.400Z,100168.06
2022-11-04T03:30:05.752Z,100160.98
2022-11-04T03:31:11.560Z,100159.93
2022-11-04T03:32:23.003Z,100164.33
2022-11-04T03:34:57.252Z,100163.20
2022-11-04T03:35:59.340Z,100168.27
2022-11-04T03:37:01.746Z,100160.14
2022-11-04T03:38:06.095Z,100165.77
2022-11-04T03:39:08.226Z,100160.22
2022-11-04T03:40:14.145Z,100165.42
2022-11-04T03:41:21.786Z,100161.06
2022-11-04T03:42:27.546Z,100171.69
2022-11-04T03:43:31.784Z,100170.77
2022-11-04T03:44:33.707Z,100174.33
2022-11-04T03:45:36.705Z,100171.97
2022-11-04T03:46:40.123Z,100178.12
2022-11-04T03:47:43.445Z,100175.27
2022-11-04T03:48:45.645Z,100174.47
2022-11-04T03:49:48.943Z,100177.91
2022-11-04T03:50:51.453Z,100172.63
2022-11-04T03:51:53.355Z,100150.50
2022-11-04T03:52:56.817Z,100175.27
2022-11-04T03:53:59.462Z,100171.83
2022-11-04T03:55:03.283Z,100179.61
2022-11-04T03:56:11.645Z,100176.89
2022-11-04T03:57:35.593Z,100171.83
2022-11-04T03:58:56.495Z,100168.91
2022-11-04T04:00:11.190Z,100176.19
2022-11-04T04:01:22.849Z,100165.63
2022-11-04T04:02:31.879Z,100169.05
2022-11-04T04:03:37.665Z,100168.27
2022-11-04T04:04:43.542Z,100163.00
2022-11-04T04:05:56.968Z,100164.05
2022-11-04T04:07:05.533Z,100163.20
2022-11-04T04:09:42.702Z,100166.90
2022-11-04T04:10:57.733Z,100168.20
2022-11-04T04:13:28.777Z,100161.94
2022-11-04T04:14:34.553Z,100165.91
2022-11-04T04:15:46.305Z,100168.97
2022-11-04T04:16:51.161Z,100164.30
2022-11-04T04:19:13.726Z,100155.64
2022-11-04T04:20:22.101Z,100171.19
2022-11-04T04:21:27.779Z,100162.22
2022-11-04T04:22:39.493Z,100162.36
2022-11-04T04:23:44.292Z,100166.62
2022-11-04T04:24:49.422Z,100164.86
2022-11-04T04:25:54.409Z,100158.21
2022-11-04T04:26:57.838Z,100163.28
2022-11-04T04:28:01.562Z,100167.64
2022-11-04T04:29:06.445Z,100164.93
2022-11-04T04:30:12.363Z,100160.56
2022-11-04T04:31:16.191Z,100162.36
2022-11-04T04:32:21.856Z,100165.77
2022-11-04T04:33:23.835Z,100168.41
2022-11-04T04:34:30.763Z,100165.91
2022-11-04T04:35:42.508Z,100173.05
2022-11-04T04:36:56.875Z,100174.84
2022-11-04T04:38:02.547Z,100180.19
2022-11-04T04:39:08.176Z,100176.33
2022-11-04T04:40:14.027Z,100178.20
2022-11-04T04:41:22.475Z,100178.20
2022-11-04T04:42:25.017Z,100179.11
2022-11-04T04:43:27.039Z,100171.27
2022-11-04T04:44:29.287Z,100171.27
2022-11-04T04:45:34.975Z,100179.88
2022-11-04T04:46:40.101Z,100182.69
2022-11-04T04:47:45.097Z,100175.48
2022-11-04T04:48:47.132Z,100184.88
2022-11-04T04:49:57.937Z,100182.91
2022-11-04T04:51:00.661Z,100184.59
2022-11-04T04:52:05.685Z,100195.15
2022-11-04T04:53:09.155Z,100189.80
2022-11-04T04:54:12.604Z,100189.80
2022-11-04T04:55:15.017Z,100190.44
2022-11-04T04:56:17.048Z,100195.72
2022-11-04T04:57:19.044Z,100173.33
2022-11-04T04:58:21.033Z,100192.23
2022-11-04T04:59:22.959Z,100188.95
2022-11-04T05:00:26.628Z,100192.44
2022-11-04T05:01:28.849Z,100192.44
2022-11-04T07:05:09.808Z,100249.09
2022-11-04T07:06:12.715Z,100248.58
2022-11-04T07:07:14.615Z,100244.86
2022-11-04T07:08:16.643Z,100251.86
2022-11-04T07:09:18.838Z,100242.91
2022-11-04T07:10:20.836Z,100244.53
2022-11-04T07:11:23.789Z,100247.95
2022-11-04T07:12:26.276Z,100246.33
2022-11-04T07:13:29.901Z,100252.89
2022-11-04T07:14:31.895Z,100240.64
2022-11-04T07:15:33.882Z,100245.55
2022-11-04T07:16:36.334Z,100240.88
2022-11-04T07:17:38.329Z,100232.83
2022-11-04T07:18:41.095Z,100233.67
2022-11-04T07:19:45.154Z,100234.18
2022-11-04T07:20:47.314Z,100242.67
2022-11-04T07:21:49.251Z,100237.94
2022-11-04T07:22:56.096Z,100234.81
2022-11-04T07:24:00.284Z,100243.83
2022-11-04T07:25:02.466Z,100234.61
2022-11-04T07:26:07.112Z,100235.77
2022-11-04T07:27:09.066Z,100228.28
2022-11-04T07:28:11.761Z,100234.13
2022-11-04T07:29:14.279Z,100233.25
2022-11-04T07:30:16.408Z,100229.55
2022-11-04T07:31:18.429Z,100223.28
2022-11-04T07:32:20.440Z,100227.19
2022-11-04T07:33:23.017Z,100228.62
2022-11-04T07:34:24.922Z,100225.98
2022-11-04T07:35:26.905Z,100226.63
2022-11-04T07:36:29.605Z,100224.83
2022-11-04T07:37:31.527Z,100227.28
2022-11-04T07:38:34.697Z,100222.00
2022-11-04T07:39:36.635Z,100222.78
2022-11-04T07:40:38.653Z,100227.14
2022-11-04T07:41:40.844Z,100225.56
2022-11-04T07:42:42.885Z,100232.35
2022-11-04T07:43:49.507Z,100230.56
2022-11-04T07:44:51.429Z,100226.93
2022-11-04T07:46:01.826Z,100227.07
2022-11-04T07:47:03.920Z,100230.41
2022-11-04T07:48:07.761Z,100232.14
2022-11-04T07:49:09.924Z,100232.00
2022-11-04T07:50:12.964Z,100231.78
2022-11-04T07:51:17.358Z,100240.77
2022-11-04T07:52:19.464Z,100232.42
2022-11-04T07:53:22.393Z,100238.20
2022-11-04T07:54:24.478Z,100234.85
2022-11-04T07:55:26.683Z,100233.25
2022-11-04T07:56:28.777Z,100235.81
2022-11-04T07:57:30.719Z,100230.84
2022-11-04T07:58:33.915Z,100227.84
2022-11-04T07:59:35.824Z,100232.06
2022-11-04T08:00:37.799Z,100237.91
2022-11-04T08:01:39.788Z,100234.70
2022-11-04T08:02:43.601Z,100228.48
2022-11-04T08:03:45.551Z,100229.28
2022-11-04T08:04:47.587Z,100231.78
2022-11-04T08:05:55.355Z,100231.12
2022-11-04T08:06:57.508Z,100228.41
2022-11-04T08:07:59.518Z,100232.70
2022-11-04T08:09:01.581Z,100229.91
2022-11-04T08:10:04.793Z,100225.55
2022-11-04T08:11:15.837Z,100225.62
2022-11-04T08:12:16.104Z,100223.45
2022-11-04T08:13:18.015Z,100230.97
2022-11-04T08:14:20.132Z,100234.56
2022-11-04T08:15:22.147Z,100232.14
2022-11-04T08:16:27.705Z,100237.42
2022-11-04T08:17:29.150Z,100233.55
2022-11-04T08:18:32.820Z,100230.32
2022-11-04T08:19:34.723Z,100233.41
2022-11-04T08:20:37.223Z,100229.33
2022-11-04T08:21:39.137Z,100230.84
2022-11-04T08:22:41.022Z,100233.20
2022-11-04T08:23:44.551Z,100230.13
2022-11-04T08:24:46.637Z,100229.91
2022-11-04T08:25:48.705Z,100222.69
2022-11-04T08:26:50.682Z,100232.19
2022-11-04T08:27:56.776Z,100229.41
2022-11-04T08:28:57.057Z,100231.72
2022-11-04T08:29:58.927Z,100230.95
2022-11-04T08:31:06.933Z,100228.92
2022-11-04T08:32:09.764Z,100241.22
2022-11-04T08:33:11.894Z,100242.95
2022-11-04T08:34:13.968Z,100239.05
2022-11-04T08:35:15.862Z,100235.94
2022-11-04T08:36:25.058Z,100237.52
2022-11-04T08:37:27.203Z,100242.95
2022-11-04T08:38:29.952Z,100242.95
2022-11-04T08:39:32.444Z,100238.50
2022-11-04T08:40:36.434Z,100234.36
2022-11-04T08:41:41.152Z,100232.52
2022-11-04T08:42:43.273Z,100239.64
2022-11-04T08:43:46.095Z,100238.88
2022-11-04T08:44:51.269Z,100231.02
2022-11-04T08:45:53.791Z,100234.36
2022-11-04T08:46:56.819Z,100230.03
2022-11-04T08:48:05.190Z,100234.36
2022-11-04T08:49:09.940Z,100232.67
2022-11-04T08:50:09.404Z,100237.62
2022-11-04T08:51:18.195Z,100237.81
2022-11-04T08:52:20.116Z,100236.78
2022-11-04T08:53:22.133Z,100230.50
2022-11-04T08:54:24.948Z,100240.92
2022-11-04T08:55:31.095Z,100233.99
2022-11-04T08:56:36.159Z,100244.19
2022-11-04T08:57:38.108Z,100229.18
2022-11-04T08:58:42.077Z,100239.50
2022-11-04T08:59:43.990Z,100239.57
2022-11-04T09:00:46.078Z,100248.26
2022-11-04T09:01:48.025Z,100241.44
2022-11-04T09:02:50.923Z,100243.09
2022-11-04T09:03:53.414Z,100240.45
2022-11-04T09:04:55.395Z,100247.02
2022-11-04T09:05:58.743Z,100244.93
2022-11-04T09:07:07.734Z,100243.38
2022-11-04T09:08:06.225Z,100246.95
2022-11-04T09:09:12.269Z,100246.87
2022-11-04T09:10:14.308Z,100238.88
2022-11-04T09:11:17.012Z,100234.69
2022-11-04T09:12:18.923Z,100238.25
2022-11-04T09:13:20.946Z,100242.47
2022-11-04T09:14:22.829Z,100236.30
2022-11-04T09:15:24.734Z,100236.23
2022-11-04T09:16:29.607Z,100240.45
2022-11-04T09:17:31.602Z,100230.95
2022-11-04T09:18:35.086Z,100230.80
2022-11-04T09:19:37.001Z,100230.25
2022-11-04T09:20:39.669Z,100227.39
2022-11-04T09:21:41.745Z,100229.25
2022-11-04T09:22:46.020Z,100225.37
2022-11-04T09:23:47.448Z,100227.09
2022-11-04T09:24:49.423Z,100224.59
2022-11-04T09:25:52.672Z,100224.38
2022-11-04T09:26:54.807Z,100224.15
2022-11-04T09:27:56.700Z,100220.52
2022-11-04T09:28:59.331Z,100224.08
2022-11-04T09:30:01.395Z,100229.42
2022-11-04T09:31:09.508Z,100229.91
2022-11-04T09:32:11.507Z,100228.12
2022-11-04T09:33:13.390Z,100230.11
2022-11-04T09:34:15.662Z,100227.00
2022-11-04T09:35:17.773Z,100223.59
2022-11-04T09:36:19.772Z,100219.78
2022-11-04T09:37:21.666Z,100220.88
2022-11-04T09:38:24.670Z,100227.63
2022-11-04T09:39:26.807Z,100228.99
2022-11-04T09:40:29.437Z,100227.67
2022-11-04T09:41:46.666Z,100224.63
2022-11-04T09:43:21.783Z,100221.14
2022-11-04T09:45:14.835Z,100225.62
2022-11-04T09:45:48.378Z,100222.76
2022-11-04T09:46:53.972Z,100230.27
2022-11-04T09:47:59.719Z,100224.14
2022-11-04T09:49:05.186Z,100227.99
2022-11-04T09:50:11.355Z,100227.00
2022-11-04T09:51:32.609Z,100225.69
2022-11-04T09:52:36.509Z,100217.55
2022-11-04T09:53:42.231Z,100217.55
2022-11-04T09:55:02.947Z,100229.92
2022-11-04T09:57:25.202Z,100222.03
2022-11-04T09:58:31.043Z,100229.06
2022-11-04T09:59:34.352Z,100226.42
2022-11-04T10:00:38.811Z,100220.19
2022-11-04T10:01:53.607Z,100224.12
2022-11-04T10:03:14.616Z,100228.73
2022-11-04T10:06:06.179Z,100226.10
2022-11-04T10:07:17.742Z,100221.28
2022-11-04T10:08:41.894Z,100221.28
2022-11-04T14:26:06.048Z,100180.23
2022-11-04T14:27:28.338Z,100179.05
2022-11-04T14:28:32.937Z,100180.75
2022-11-04T14:29:35.567Z,100183.42
2022-11-04T14:30:55.227Z,100181.62
2022-11-04T14:31:59.496Z,100184.19
2022-11-04T14:33:05.182Z,100182.40
2022-11-04T14:34:09.715Z,100184.19
2022-11-04T14:35:18.217Z,100175.39
2022-11-04T14:36:26.986Z,100175.39
2022-11-04T14:38:43.009Z,100173.74
2022-11-04T14:39:47.019Z,100187.39
2022-11-04T14:42:03.051Z,100179.73
2022-11-04T14:43:07.227Z,100186.14
2022-11-04T14:44:16.247Z,100184.45
2022-11-04T14:45:28.300Z,100187.24
2022-11-04T14:46:36.809Z,100179.47
2022-11-04T14:47:41.657Z,100186.14
2022-11-04T14:48:47.197Z,100186.95
2022-11-04T14:49:52.911Z,100171.88
2022-11-04T14:50:56.233Z,100171.88
2022-11-04T14:51:58.242Z,100180.02
2022-11-04T14:53:03.035Z,100177.38
2022-11-04T14:54:11.683Z,100175.44
2022-11-04T14:55:17.341Z,100175.44
2022-11-04T14:56:24.501Z,100170.38
2022-11-04T14:57:29.146Z,100178.30
2022-11-04T14:58:31.406Z,100173.41
2022-11-04T14:59:33.420Z,100181.02
2022-11-04T15:00:51.928Z,100175.58
2022-11-04T15:01:55.012Z,100182.87
2022-11-04T15:03:41.210Z,100180.31
2022-11-04T15:04:28.933Z,100178.77
2022-11-04T15:05:32.017Z,100180.02
2022-11-04T15:06:47.051Z,100182.87
2022-11-04T15:07:39.155Z,100187.30
2022-11-04T15:08:44.334Z,100187.45
2022-11-04T15:09:48.961Z,100180.30
2022-11-04T15:10:54.439Z,100182.94
2022-11-04T15:12:11.804Z,100189.03
2022-11-04T15:13:17.467Z,100177.45
2022-11-04T15:14:24.628Z,100180.91
2022-11-04T15:15:36.069Z,100181.05
2022-11-04T15:16:39.438Z,100183.69
2022-11-04T15:17:41.702Z,100182.87
2022-11-04T15:18:44.843Z,100184.88
2022-11-04T15:21:01.702Z,100185.02
2022-11-04T15:22:06.740Z,100189.03
2022-11-04T15:23:12.851Z,100193.53
2022-11-04T15:24:16.284Z,100191.16
2022-11-04T15:25:20.183Z,100184.23
2022-11-04T15:26:31.180Z,100192.86
2022-11-04T15:27:35.760Z,100188.52
2022-11-04T15:29:54.859Z,100181.31
2022-11-04T15:31:06.237Z,100196.78
2022-11-04T15:32:10.103Z,100193.30
2022-11-04T15:33:15.793Z,100193.36
2022-11-04T15:34:18.319Z,100200.40
2022-11-04T15:35:21.376Z,100189.71
2022-11-04T15:36:29.664Z,100194.98
2022-11-04T15:37:33.783Z,100196.84
2022-11-04T15:38:38.505Z,100205.54
2022-11-04T15:39:44.102Z,100191.64
2022-11-04T15:40:46.491Z,100202.26
2022-11-04T15:41:55.061Z,100200.70
2022-11-04T15:43:00.202Z,100197.12
2022-11-04T15:44:03.007Z,100195.56
2022-11-04T15:45:27.340Z,100196.81
2022-11-04T15:46:30.019Z,100198.53
2022-11-04T15:47:31.942Z,100194.38
2022-11-04T15:48:34.376Z,100202.41
2022-11-04T15:49:37.046Z,100200.79
2022-11-04T15:50:41.252Z,100206.33
2022-11-04T15:51:43.381Z,100203.89
2022-11-04T15:52:49.043Z,100204.86
2022-11-04T15:54:17.682Z,100201.25
2022-11-04T15:56:37.098Z,100200.20
2022-11-04T15:57:39.998Z,100192.30
2022-11-04T15:58:44.400Z,100192.30
2022-11-04T15:59:50.142Z,100196.72
2022-11-04T16:00:54.261Z,100195.97
2022-11-04T16:01:57.381Z,100200.39
2022-11-04T16:03:00.674Z,100201.38
2022-11-04T16:04:05.272Z,100202.38
2022-11-04T16:06:39.072Z,100196.98
2022-11-04T16:07:43.971Z,100198.33
2022-11-04T16:09:01.160Z,100190.74
2022-11-04T16:10:23.288Z,100204.86
2022-11-04T16:11:25.375Z,100197.02
2022-11-04T16:12:37.182Z,100200.56
2022-11-04T16:13:39.777Z,100198.87
2022-11-04T16:14:50.508Z,100201.50
2022-11-04T16:16:00.347Z,100199.84
2022-11-04T16:17:02.484Z,100195.42
2022-11-04T16:18:07.661Z,100199.96
2022-11-04T16:19:16.429Z,100201.81
2022-11-04T16:20:18.422Z,100197.52
2022-11-04T16:21:33.463Z,100207.14
2022-11-04T16:22:37.591Z,100212.53
2022-11-04T16:23:45.819Z,100202.24
2022-11-04T16:24:50.539Z,100209.30
2022-11-04T16:26:02.579Z,100208.41
2022-11-04T16:27:11.613Z,100209.36
2022-11-04T16:28:21.592Z,100198.16
2022-11-04T16:29:33.081Z,100203.42
2022-11-04T16:30:35.431Z,100202.48
2022-11-04T16:31:37.458Z,100207.56
2022-11-04T16:32:50.713Z,100205.00
2022-11-04T16:33:53.400Z,100199.91
2022-11-04T16:35:05.821Z,100206.91
2022-11-04T16:36:11.632Z,100206.00
2022-11-04T16:37:13.567Z,100197.09
2022-11-04T16:38:16.735Z,100203.36
2022-11-04T16:39:18.646Z,100201.70
2022-11-04T16:40:23.464Z,100196.61
2022-11-04T16:41:28.286Z,100201.94
2022-11-04T16:42:30.224Z,100196.07
2022-11-04T16:43:32.807Z,100198.76
2022-11-04T16:44:36.813Z,100203.36
2022-11-04T16:45:39.785Z,100201.87
2022-11-04T16:46:42.030Z,100197.55
2022-11-04T16:47:44.411Z,100197.95
2022-11-04T16:48:46.323Z,100205.11
2022-11-04T16:49:48.252Z,100203.39
2022-11-04T16:50:50.432Z,100198.12
2022-11-04T16:51:59.130Z,100203.39
2022-11-04T16:53:01.994Z,100199.85
2022-11-04T16:54:04.921Z,100202.59
2022-11-04T16:55:08.391Z,100203.39
2022-11-04T16:56:11.068Z,100198.01
2022-11-04T16:57:14.280Z,100201.55
2022-11-04T16:58:17.827Z,100203.39
2022-11-04T16:59:20.289Z,100202.54
2022-11-04T17:00:25.969Z,100199.97
2022-11-04T17:01:27.994Z,100206.92
2022-11-04T17:02:31.433Z,100209.67
2022-11-04T17:03:33.508Z,100207.92
2022-11-04T17:04:35.502Z,100210.61
2022-11-04T17:05:37.395Z,100211.62
2022-11-04T17:06:39.534Z,100213.41
2022-11-04T17:07:52.801Z,100211.69
2022-11-04T17:08:46.134Z,100213.47
2022-11-04T17:09:48.664Z,100217.94
2022-11-04T17:10:51.979Z,100219.80
2022-11-04T17:11:53.992Z,100214.73
2022-11-04T17:12:56.012Z,100210.33
2022-11-04T17:13:57.921Z,100213.30
2022-11-04T17:15:00.745Z,100207.04
2022-11-04T17:16:04.279Z,100206.42
2022-11-04T17:17:06.653Z,100212.79
2022-11-04T17:18:13.246Z,100209.59
2022-11-04T17:19:15.674Z,100208.84
2022-11-04T17:20:18.816Z,100204.64
2022-11-04T17:21:21.206Z,100209.78
2022-11-04T17:22:23.230Z,100206.48
2022-11-04T17:23:25.243Z,100199.59
2022-11-04T17:24:27.865Z,100208.44
2022-11-04T17:25:30.008Z,100205.88
2022-11-04T17:26:31.999Z,100207.77
2022-11-04T17:27:34.080Z,100210.72
2022-11-04T17:28:35.974Z,100202.72
2022-11-04T17:29:38.005Z,100206.17
2022-11-04T17:30:41.408Z,100219.38
2022-11-04T17:31:44.739Z,100201.03
2022-11-04T17:32:47.971Z,100207.34
2022-11-04T17:33:49.881Z,100208.39
2022-11-04T17:34:51.771Z,100208.39
2022-11-04T17:35:53.969Z,100209.23
2022-11-04T17:36:55.988Z,100207.45
2022-11-04T17:37:57.874Z,100207.34
2022-11-04T17:39:00.091Z,100217.97
2022-11-04T17:40:03.146Z,100209.19
2022-11-04T17:41:05.946Z,100213.54
2022-11-04T17:42:07.829Z,100207.34
2022-11-04T17:43:12.386Z,100217.97
2022-11-04T17:44:13.526Z,100210.14
2022-11-04T17:45:15.643Z,100220.65
2022-11-04T17:46:17.750Z,100212.92
2022-11-04T17:47:20.245Z,100219.91
2022-11-04T17:48:22.163Z,100211.39
2022-11-04T17:49:24.899Z,100209.61
2022-11-04T17:50:27.178Z,100219.44
2022-11-04T17:51:31.027Z,100216.86
2022-11-04T17:52:34.732Z,100220.38
2022-11-04T17:53:38.681Z,100220.47
2022-11-04T17:54:40.878Z,100217.17
2022-11-04T17:55:42.790Z,100217.22
2022-11-04T17:56:45.094Z,100221.78
2022-11-04T17:57:47.078Z,100215.62
2022-11-04T17:58:50.386Z,100216.58
2022-11-04T17:59:53.505Z,100217.41
2022-11-04T18:00:55.723Z,100221.09
2022-11-04T18:01:58.281Z,100218.51
2022-11-04T18:03:00.444Z,100221.19
2022-11-04T18:04:03.277Z,100219.56
2022-11-04T18:05:06.608Z,100216.72
2022-11-04T21:25:28.779Z,100283.34
2022-11-04T21:26:33.523Z,100284.37
2022-11-04T21:27:35.449Z,100293.74
2022-11-04T21:28:38.366Z,100286.67
2022-11-04T21:29:40.295Z,100283.30
2022-11-04T21:30:46.263Z,100291.91
2022-11-04T21:31:48.184Z,100289.95
2022-11-04T21:32:50.083Z,100281.06
2022-11-04T21:33:53.553Z,100289.73
2022-11-04T21:34:55.458Z,100288.70
2022-11-04T21:36:06.896Z,100283.39
2022-11-04T21:37:08.732Z,100284.12
2022-11-04T21:38:16.824Z,100276.45
2022-11-04T21:39:19.105Z,100282.50
2022-11-04T21:40:21.959Z,100280.66
2022-11-04T21:41:26.617Z,100276.38
2022-11-04T21:42:28.589Z,100279.11
2022-11-04T21:43:30.473Z,100281.84
2022-11-04T21:44:32.392Z,100288.95
2022-11-04T21:45:34.903Z,100282.77
2022-11-04T21:46:38.708Z,100286.97
2022-11-04T21:47:40.806Z,100288.55
2022-11-04T21:48:42.676Z,100292.02
2022-11-04T21:49:44.564Z,100294.75
2022-11-04T21:50:46.916Z,100291.42
2022-11-04T21:51:48.925Z,100288.73
2022-11-04T21:52:50.976Z,100287.08
2022-11-04T21:53:53.072Z,100293.45
2022-11-04T21:54:57.401Z,100289.10
2022-11-04T21:56:06.501Z,100288.22
2022-11-04T21:57:08.436Z,100288.33
2022-11-04T21:58:10.630Z,100293.38
2022-11-04T21:59:18.530Z,100285.45
2022-11-04T22:00:21.103Z,100288.30
2022-11-04T22:01:26.160Z,100286.67
2022-11-04T22:02:28.561Z,100285.85
2022-11-04T22:03:30.815Z,100281.36
2022-11-04T22:04:32.688Z,100278.11
2022-11-04T22:05:34.558Z,100273.83
2022-11-04T22:06:36.545Z,100282.70
2022-11-04T22:07:39.520Z,100279.48
2022-11-04T22:08:46.839Z,100278.59
2022-11-04T22:09:48.758Z,100285.67
2022-11-04T22:10:50.730Z,100276.02
2022-11-04T22:11:52.602Z,100277.78
2022-11-04T22:12:55.463Z,100277.84
2022-11-04T22:14:00.893Z,100277.89
2022-11-04T22:15:03.505Z,100285.67
2022-11-04T22:16:20.470Z,100284.75
2022-11-04T22:17:22.396Z,100286.62
2022-11-04T22:18:25.807Z,100285.59
2022-11-04T22:19:27.818Z,100292.53
2022-11-04T22:20:31.144Z,100288.19
2022-11-04T22:21:33.407Z,100293.59
2022-11-04T22:22:35.293Z,100294.56
2022-11-04T22:23:38.173Z,100292.12